Terminal Aerodrome Forecast
Issued by NWS

Home | Current Version | Previous Version | Text Only | Print | Product List | Glossary On
Versions: 1 2 3 4 5 6 7 8 9 10 11 12 13 14 15 16 17 18 19 20 21 22 23 24 25 26 27 28 29 30 31 32 33 34 35 36 37 38 39 40 41 42 43 44 45 46 47 48 49 50
000
FTUS45 KGJT 220818 AAB
TAFTEX
TAF AMD
KTEX 220818Z 2208/2306 12005KT P6SM VCSH SCT030 BKN050 OVC080
      TEMPO 2208/2211 4SM -SHSN SCT015 BKN030
     FM221100 14004KT P6SM SCT050 BKN080
     FM221800 15009G16KT P6SM VCTS SCT070CB OVC100
     FM230300 16006KT P6SM VCSH SCT060 OVC080=

USA.gov is the U.S. government's official web portal to all federal, state and local government web resources and services.